Nossa Senhora da Guia, Brazil
Current Conditions -  °F | °C
As of 5:00 AM on Friday 24 Oct 2014 (Local Time) from SBCY Reporting Station
Scattered Clouds Scattered Clouds  
Wind Chill: 79°   Ceiling: Unl
Heat Index: 82°   Visibility: 6mi
Dew Point: 72°   Wind: 5mph
Humidity: 78%   Direction: 10°N
Pressure: 29.83"   Gusts: NA
Location:  14.63°S, 57.07°W
Report Text: SBCY 240800Z 01004KT 9999 SCT020 26/22 Q1010
Loading
Personal Weather Stations






























Interactive Weather Map
Tropical Storm Tracking
New forecast layout! Learn more

10-Day Weather Forecast

Advertisements
Track Severe Weather on mobile